createdAt,value
2018-08-25T00:00:16.833Z,2.10
2018-08-25T00:02:45.924Z,2.07
2018-08-25T00:05:15.011Z,2.10
2018-08-25T00:07:44.076Z,2.63
2018-08-25T00:10:13.308Z,2.47
2018-08-25T00:12:42.374Z,2.13
2018-08-25T00:15:11.458Z,2.37
2018-08-25T00:17:40.534Z,2.10
2018-08-25T00:20:09.606Z,2.00
2018-08-25T00:22:38.652Z,2.20
2018-08-25T00:25:07.712Z,2.50
2018-08-25T00:27:36.763Z,1.87
2018-08-25T00:30:10.039Z,2.50
2018-08-25T00:32:39.123Z,2.87
2018-08-25T00:35:08.216Z,2.50
2018-08-25T00:37:37.305Z,2.40
2018-08-25T00:40:06.378Z,2.50
2018-08-25T00:42:35.439Z,2.30
2018-08-25T00:45:05.565Z,2.37
2018-08-25T00:47:34.644Z,2.30
2018-08-25T00:50:03.706Z,2.23
2018-08-25T00:52:32.750Z,2.27
2018-08-25T00:55:01.823Z,1.90
2018-08-25T00:57:30.958Z,2.00
2018-08-25T01:00:00.098Z,2.30
2018-08-25T01:02:29.145Z,2.13
2018-08-25T01:04:58.187Z,2.00
2018-08-25T01:07:27.259Z,2.43
2018-08-25T01:09:56.348Z,2.27
2018-08-25T01:12:25.483Z,2.20
2018-08-25T01:14:54.577Z,2.50
2018-08-25T01:17:23.659Z,2.23
2018-08-25T01:19:52.763Z,1.70
2018-08-25T01:22:21.880Z,2.30
2018-08-25T01:24:50.969Z,2.10
2018-08-25T01:27:20.016Z,2.20
2018-08-25T01:29:49.087Z,2.10
2018-08-25T01:32:18.153Z,2.50
2018-08-25T01:34:47.260Z,2.20
2018-08-25T01:37:16.553Z,2.08
2018-08-25T01:39:45.656Z,2.57
2018-08-25T01:42:14.747Z,2.10
2018-08-25T01:44:43.945Z,2.50
2018-08-25T01:47:13.023Z,2.05
2018-08-25T01:49:42.102Z,1.90
2018-08-25T01:52:11.170Z,2.12
2018-08-25T01:54:40.222Z,2.40
2018-08-25T01:57:09.293Z,2.45
2018-08-25T01:59:38.378Z,2.30
2018-08-25T02:02:07.457Z,2.13
2018-08-25T02:04:36.540Z,2.10
2018-08-25T02:07:05.624Z,2.10
2018-08-25T02:09:34.704Z,2.00
2018-08-25T02:12:03.846Z,1.93
2018-08-25T02:14:33.406Z,2.50
2018-08-25T02:17:02.537Z,2.20
2018-08-25T02:19:31.613Z,2.00
2018-08-25T02:22:00.745Z,2.50
2018-08-25T02:24:29.825Z,2.20
2018-08-25T02:26:58.938Z,2.10
2018-08-25T02:29:27.992Z,2.10
2018-08-25T02:31:57.070Z,2.33
2018-08-25T02:34:26.161Z,2.12
2018-08-25T02:36:55.258Z,2.03
2018-08-25T02:39:24.397Z,1.95
2018-08-25T02:41:53.566Z,1.80
2018-08-25T02:44:22.665Z,2.10
2018-08-25T02:46:51.738Z,1.97
2018-08-25T02:49:21.111Z,2.52
2018-08-25T02:51:50.242Z,2.13
2018-08-25T02:54:19.333Z,2.05
2018-08-25T02:56:48.431Z,2.10
2018-08-25T02:59:17.461Z,2.63
2018-08-25T03:01:46.528Z,1.83
2018-08-25T03:04:15.603Z,2.00
2018-08-25T03:06:44.658Z,2.03
2018-08-25T03:09:14.072Z,2.07
2018-08-25T03:11:43.127Z,1.83
2018-08-25T03:14:12.764Z,2.25
2018-08-25T03:16:41.800Z,2.00
2018-08-25T03:19:10.866Z,2.20
2018-08-25T03:21:39.901Z,1.97
2018-08-25T03:24:08.970Z,2.23
2018-08-25T03:26:38.018Z,2.37
2018-08-25T03:29:07.462Z,2.13
2018-08-25T03:31:36.533Z,2.27
2018-08-25T03:34:06.106Z,2.10
2018-08-25T03:36:35.286Z,2.50
2018-08-25T03:39:06.205Z,2.50
2018-08-25T03:41:35.251Z,2.35
2018-08-25T03:44:04.333Z,2.47
2018-08-25T03:46:33.447Z,2.20
2018-08-25T03:49:02.518Z,1.93
2018-08-25T03:51:31.569Z,2.30
2018-08-25T03:54:00.647Z,2.20
2018-08-25T03:56:29.686Z,2.60
2018-08-25T03:58:58.794Z,2.17
2018-08-25T04:01:27.905Z,2.30
2018-08-25T04:03:56.867Z,2.23
2018-08-25T04:06:25.930Z,2.40
2018-08-25T04:08:54.963Z,2.73
2018-08-25T04:11:24.027Z,2.37
2018-08-25T04:13:53.156Z,2.40
2018-08-25T04:16:22.229Z,2.40
2018-08-25T04:18:51.283Z,2.10
2018-08-25T04:21:20.357Z,2.50
2018-08-25T04:23:49.400Z,2.43
2018-08-25T04:26:18.471Z,2.47
2018-08-25T04:28:47.514Z,2.83
2018-08-25T04:31:16.581Z,2.50
2018-08-25T04:33:45.631Z,3.13
2018-08-25T04:36:14.709Z,2.50
2018-08-25T04:38:43.759Z,2.40
2018-08-25T04:41:12.867Z,2.90
2018-08-25T04:43:41.898Z,2.80
2018-08-25T04:46:10.986Z,2.47
2018-08-25T04:48:39.986Z,2.50
2018-08-25T04:51:09.094Z,2.47
2018-08-25T04:53:38.437Z,2.20
2018-08-25T04:56:07.803Z,2.80
2018-08-25T04:58:36.866Z,2.43
2018-08-25T05:01:06.373Z,2.63
2018-08-25T05:03:35.434Z,2.50
2018-08-25T05:06:05.450Z,2.92
2018-08-25T05:08:34.529Z,2.50
2018-08-25T05:11:03.575Z,2.90
2018-08-25T05:13:32.697Z,2.90
2018-08-25T05:16:01.789Z,2.37
2018-08-25T05:18:30.870Z,2.40
2018-08-25T05:20:59.900Z,3.10
2018-08-25T05:23:28.946Z,2.83
2018-08-25T05:25:58.095Z,2.33
2018-08-25T05:28:27.192Z,2.60
2018-08-25T05:30:56.261Z,2.80
2018-08-25T05:33:25.395Z,2.43
2018-08-25T05:35:54.488Z,2.97
2018-08-25T05:38:23.590Z,2.87
2018-08-25T05:40:52.630Z,2.60
2018-08-25T05:43:21.723Z,3.05
2018-08-25T05:45:50.781Z,2.67
2018-08-25T05:48:19.865Z,2.83
2018-08-25T05:50:48.898Z,2.97
2018-08-25T05:53:18.001Z,3.00
2018-08-25T05:55:47.063Z,2.60
2018-08-25T05:58:16.110Z,3.00
2018-08-25T06:00:45.225Z,3.43
2018-08-25T06:03:14.290Z,3.03
2018-08-25T06:05:43.387Z,3.50
2018-08-25T06:08:12.449Z,3.27
2018-08-25T06:10:41.522Z,2.90
2018-08-25T06:13:10.670Z,3.42
2018-08-25T06:15:40.275Z,3.27
2018-08-25T06:18:09.363Z,2.73
2018-08-25T06:20:38.436Z,3.43
2018-08-25T06:23:07.484Z,3.17
2018-08-25T06:25:37.770Z,3.30
2018-08-25T06:28:06.862Z,3.20
2018-08-25T06:30:35.994Z,3.47
2018-08-25T06:33:05.418Z,3.95
2018-08-25T06:35:34.570Z,3.63
2018-08-25T06:38:03.670Z,3.27
2018-08-25T06:40:32.818Z,3.30
2018-08-25T06:43:01.913Z,2.90
2018-08-25T06:45:30.991Z,3.50
2018-08-25T06:48:00.181Z,3.30
2018-08-25T06:50:29.268Z,3.30
2018-08-25T06:52:58.426Z,3.70
2018-08-25T06:55:27.558Z,3.40
2018-08-25T06:57:56.663Z,3.43
2018-08-25T07:00:25.833Z,3.40
2018-08-25T07:02:54.851Z,3.73
2018-08-25T07:05:23.931Z,3.45
2018-08-25T07:07:53.420Z,3.60
2018-08-25T07:10:22.522Z,3.00
2018-08-25T07:12:51.677Z,3.07
2018-08-25T07:15:20.719Z,3.55
2018-08-25T07:17:49.850Z,3.10
2018-08-25T07:20:18.959Z,2.87
2018-08-25T07:22:48.116Z,3.47
2018-08-25T07:25:17.162Z,3.00
2018-08-25T07:27:46.346Z,3.00
2018-08-25T07:30:15.381Z,2.70
2018-08-25T07:32:44.522Z,3.27
2018-08-25T07:35:13.582Z,3.17
2018-08-25T07:37:42.663Z,2.83
2018-08-25T07:40:11.857Z,2.53
2018-08-25T07:42:41.065Z,2.60
2018-08-25T07:45:10.318Z,2.90
2018-08-25T07:47:39.360Z,3.23
2018-08-25T07:50:09.268Z,3.13
2018-08-25T07:52:38.385Z,3.20
2018-08-25T07:55:07.651Z,3.10
2018-08-25T07:57:36.678Z,3.20
2018-08-25T08:00:06.055Z,2.63
2018-08-25T08:02:35.170Z,2.80
2018-08-25T08:05:04.291Z,2.60
2018-08-25T08:07:34.541Z,2.83
2018-08-25T08:10:03.623Z,2.50
2018-08-25T08:12:33.242Z,2.10
2018-08-25T08:15:02.438Z,3.07
2018-08-25T08:17:31.535Z,2.70
2018-08-25T08:20:00.609Z,2.20
2018-08-25T08:22:29.694Z,2.80
2018-08-25T08:24:58.880Z,2.13
2018-08-25T08:27:27.921Z,2.10
2018-08-25T08:29:57.137Z,3.17
2018-08-25T08:32:26.260Z,2.40
2018-08-25T08:34:55.368Z,1.90
2018-08-25T08:37:24.513Z,2.02
2018-08-25T08:39:53.594Z,1.83
2018-08-25T08:42:22.932Z,1.90
2018-08-25T08:44:52.124Z,2.23
2018-08-25T08:47:21.301Z,2.15
2018-08-25T08:49:50.400Z,2.10
2018-08-25T08:52:19.441Z,3.08
2018-08-25T08:54:48.563Z,2.50
2018-08-25T08:57:17.687Z,2.50
2018-08-25T08:59:46.816Z,2.07
2018-08-25T09:02:15.878Z,1.80
2018-08-25T09:04:44.993Z,1.65
2018-08-25T09:07:14.172Z,1.90
2018-08-25T09:09:43.280Z,1.97
2018-08-25T09:12:12.365Z,2.33
2018-08-25T09:14:41.730Z,1.50
2018-08-25T09:17:10.865Z,1.50
2018-08-25T09:19:39.924Z,1.50
2018-08-25T09:22:09.269Z,1.50
2018-08-25T09:24:38.455Z,1.70
2018-08-25T09:27:07.868Z,1.57
2018-08-25T09:29:37.067Z,1.93
2018-08-25T09:32:06.766Z,1.50
2018-08-25T09:34:36.659Z,1.50
2018-08-25T09:37:05.899Z,1.57
2018-08-25T09:39:34.950Z,1.53
2018-08-25T09:42:04.151Z,1.27
2018-08-25T09:44:33.247Z,1.40
2018-08-25T09:47:02.597Z,1.50
2018-08-25T09:49:31.694Z,1.23
2018-08-25T09:52:00.877Z,1.50
2018-08-25T09:54:30.038Z,1.17
2018-08-25T09:56:59.134Z,1.25
2018-08-25T09:59:28.222Z,1.27
2018-08-25T10:01:59.201Z,1.33
2018-08-25T10:04:28.996Z,1.50
2018-08-25T10:06:58.183Z,1.40
2018-08-25T10:09:27.342Z,1.27
2018-08-25T10:11:56.462Z,1.30
2018-08-25T10:14:25.656Z,1.60
2018-08-25T10:16:54.862Z,1.60
2018-08-25T10:19:23.879Z,1.30
2018-08-25T10:21:53.317Z,1.60
2018-08-25T10:24:22.402Z,1.50
2018-08-25T10:26:52.003Z,1.60
2018-08-25T10:29:23.900Z,1.33
2018-08-25T10:31:53.754Z,1.70
2018-08-25T10:34:23.359Z,1.87
2018-08-25T10:36:52.462Z,1.50
2018-08-25T10:39:21.639Z,1.57
2018-08-25T10:41:50.777Z,1.30
2018-08-25T10:44:19.939Z,1.30
2018-08-25T10:46:49.194Z,1.17
2018-08-25T10:49:18.504Z,1.17
2018-08-25T10:51:49.731Z,1.53
2018-08-25T10:54:20.206Z,1.30
2018-08-25T10:56:49.414Z,1.40
2018-08-25T10:59:18.581Z,1.30
2018-08-25T11:01:47.739Z,1.40
2018-08-25T11:04:16.963Z,1.30
2018-08-25T11:06:48.090Z,1.07
2018-08-25T11:09:17.422Z,1.60
2018-08-25T11:11:48.244Z,1.17
2018-08-25T11:14:17.368Z,1.70
2018-08-25T11:16:46.951Z,1.33
2018-08-25T11:19:16.178Z,1.40
2018-08-25T11:21:45.840Z,1.30
2018-08-25T11:24:14.913Z,1.25
2018-08-25T11:26:43.995Z,1.27
2018-08-25T11:29:13.654Z,1.50
2018-08-25T11:31:43.160Z,1.50
2018-08-25T11:34:12.227Z,1.45
2018-08-25T11:36:41.364Z,1.50
2018-08-25T11:39:11.182Z,1.10
2018-08-25T11:41:40.614Z,1.20
2018-08-25T11:44:09.820Z,1.20
2018-08-25T11:46:38.973Z,1.03
2018-08-25T11:49:08.135Z,1.00
2018-08-25T11:51:37.255Z,1.00
2018-08-25T11:54:06.530Z,1.80
2018-08-25T11:56:35.669Z,1.20
2018-08-25T11:59:05.879Z,1.32
2018-08-25T12:01:35.355Z,1.13
2018-08-25T12:04:05.056Z,1.30
2018-08-25T12:06:34.153Z,1.20
2018-08-25T12:09:03.694Z,1.70
2018-08-25T12:11:33.554Z,1.30
2018-08-25T12:14:02.840Z,1.60
2018-08-25T12:16:31.995Z,1.27
2018-08-25T12:19:01.171Z,1.40
2018-08-25T12:21:30.262Z,1.10
2018-08-25T12:23:59.461Z,1.30
2018-08-25T12:26:28.501Z,0.80
2018-08-25T12:28:58.204Z,1.20
2018-08-25T12:31:27.260Z,1.10
2018-08-25T12:33:56.351Z,1.20
2018-08-25T12:36:26.101Z,1.00
2018-08-25T12:38:55.619Z,1.33
2018-08-25T12:41:24.666Z,1.00
2018-08-25T12:43:53.757Z,1.17
2018-08-25T12:46:22.894Z,1.30
2018-08-25T12:48:52.091Z,1.03
2018-08-25T12:51:21.074Z,1.27
2018-08-25T12:53:50.206Z,1.10
2018-08-25T12:56:19.392Z,1.00
2018-08-25T12:58:48.449Z,0.93
2018-08-25T13:01:17.563Z,1.10
2018-08-25T13:03:46.687Z,1.20
2018-08-25T13:06:15.827Z,1.20
2018-08-25T13:08:44.942Z,1.03
2018-08-25T13:11:14.098Z,0.90
2018-08-25T13:13:43.200Z,1.40
2018-08-25T13:16:12.300Z,1.23
2018-08-25T13:18:41.381Z,1.13
2018-08-25T13:21:10.494Z,1.00
2018-08-25T13:23:39.599Z,1.07
2018-08-25T13:26:08.830Z,1.23
2018-08-25T13:28:37.947Z,1.07
2018-08-25T13:31:07.281Z,1.00
2018-08-25T13:33:36.306Z,1.00
2018-08-25T13:36:05.859Z,0.82
2018-08-25T13:38:35.255Z,1.40
2018-08-25T13:41:04.707Z,0.80
2018-08-25T13:43:33.872Z,0.90
2018-08-25T13:46:03.373Z,1.07
2018-08-25T13:48:32.829Z,1.30
2018-08-25T13:51:02.348Z,1.20
2018-08-25T13:53:32.300Z,1.00
2018-08-25T13:56:01.478Z,1.20
2018-08-25T13:58:30.608Z,1.40
2018-08-25T14:00:59.762Z,1.30
2018-08-25T14:03:28.970Z,1.17
2018-08-25T14:05:58.114Z,1.30
2018-08-25T14:08:27.596Z,1.17
2018-08-25T14:10:56.760Z,1.00
2018-08-25T14:13:25.908Z,1.20
2018-08-25T14:15:55.058Z,1.20
2018-08-25T14:18:24.127Z,1.20
2018-08-25T14:20:53.225Z,1.20
2018-08-25T14:23:22.318Z,1.45
2018-08-25T14:25:51.405Z,1.23
2018-08-25T14:28:20.501Z,1.60
2018-08-25T14:30:49.589Z,1.30
2018-08-25T14:33:18.675Z,1.35
2018-08-25T14:35:48.223Z,1.47
2018-08-25T14:38:17.312Z,1.10
2018-08-25T14:40:46.430Z,1.90
2018-08-25T14:43:15.495Z,1.37
2018-08-25T14:45:44.652Z,1.30
2018-08-25T14:48:14.394Z,1.52
2018-08-25T14:50:43.897Z,1.73
2018-08-25T14:53:13.707Z,8.93
2018-08-25T14:55:43.502Z,1.07
2018-08-25T14:58:13.342Z,1.30
2018-08-25T15:00:42.493Z,1.20
2018-08-25T15:03:11.603Z,1.27
2018-08-25T15:05:40.908Z,1.10
2018-08-25T15:08:10.328Z,1.40
2018-08-25T15:10:39.409Z,1.00
2018-08-25T15:13:08.600Z,1.57
2018-08-25T15:15:37.735Z,1.90
2018-08-25T15:18:06.956Z,1.43
2018-08-25T15:20:36.289Z,1.10
2018-08-25T15:23:06.311Z,1.30
2018-08-25T15:25:35.397Z,1.40
2018-08-25T15:28:04.508Z,1.50
2018-08-25T15:30:33.591Z,1.50
2018-08-25T15:33:02.714Z,1.40
2018-08-25T15:35:32.123Z,1.30
2018-08-25T15:38:01.464Z,1.57
2018-08-25T15:40:30.996Z,1.87
2018-08-25T15:43:00.038Z,1.33
2018-08-25T15:45:29.675Z,1.40
2018-08-25T15:47:58.768Z,1.40
2018-08-25T15:50:27.842Z,1.30
2018-08-25T15:52:56.938Z,1.20
2018-08-25T15:55:26.397Z,0.97
2018-08-25T15:57:55.624Z,1.37
2018-08-25T16:00:26.989Z,1.43
2018-08-25T16:02:56.113Z,1.40
2018-08-25T16:05:25.221Z,1.20
2018-08-25T16:07:54.330Z,1.40
2018-08-25T16:10:23.524Z,1.40
2018-08-25T16:12:52.609Z,1.47
2018-08-25T16:15:21.722Z,1.70
2018-08-25T16:17:50.828Z,1.30
2018-08-25T16:20:19.983Z,1.40
2018-08-25T16:22:49.081Z,1.40
2018-08-25T16:25:18.153Z,1.37
2018-08-25T16:27:47.249Z,1.40
2018-08-25T16:30:16.347Z,1.17
2018-08-25T16:32:45.786Z,1.47
2018-08-25T16:35:14.930Z,1.37
2018-08-25T16:37:44.038Z,1.30
2018-08-25T16:40:13.148Z,1.27
2018-08-25T16:42:42.254Z,1.53
2018-08-25T16:45:11.445Z,1.73
2018-08-25T16:47:40.526Z,1.40
2018-08-25T16:50:09.689Z,1.40
2018-08-25T16:52:38.789Z,1.60
2018-08-25T16:55:07.925Z,1.57
2018-08-25T16:57:37.031Z,1.90
2018-08-25T17:00:06.427Z,1.60
2018-08-25T17:02:35.482Z,1.30
2018-08-25T17:05:05.663Z,1.50
2018-08-25T17:07:34.764Z,2.57
2018-08-25T17:10:03.927Z,1.50
2018-08-25T17:12:33.045Z,1.30
2018-08-25T17:15:02.157Z,1.53
2018-08-25T17:17:31.235Z,1.60
2018-08-25T17:20:00.334Z,1.47
2018-08-25T17:22:29.830Z,1.40
2018-08-25T17:24:59.933Z,1.30
2018-08-25T17:27:29.139Z,1.52
2018-08-25T17:29:58.710Z,1.50
2018-08-25T17:32:28.049Z,1.70
2018-08-25T17:34:57.173Z,1.50
2018-08-25T17:37:26.281Z,1.90
2018-08-25T17:39:55.380Z,2.10
2018-08-25T17:42:25.036Z,2.83
2018-08-25T17:44:54.196Z,2.72
2018-08-25T17:47:23.243Z,2.10
2018-08-25T17:49:52.374Z,1.80
2018-08-25T17:52:21.428Z,1.77
2018-08-25T17:54:50.529Z,1.43
2018-08-25T17:57:19.649Z,1.40
2018-08-25T17:59:49.009Z,1.87
2018-08-25T18:02:18.124Z,1.50
2018-08-25T18:04:47.438Z,2.00
2018-08-25T18:07:17.987Z,1.65
2018-08-25T18:09:47.118Z,1.77
2018-08-25T18:12:16.926Z,2.40
2018-08-25T18:14:46.052Z,1.90
2018-08-25T18:17:15.225Z,1.90
2018-08-25T18:19:44.283Z,2.13
2018-08-25T18:22:13.583Z,1.82
2018-08-25T18:27:23.990Z,2.03
2018-08-25T18:29:53.048Z,1.80
2018-08-25T18:32:22.133Z,1.90
2018-08-25T18:34:51.308Z,2.00
2018-08-25T18:37:20.413Z,2.00
2018-08-25T18:39:49.568Z,1.60
2018-08-25T18:42:18.779Z,1.75
2018-08-25T18:44:48.714Z,1.70
2018-08-25T18:47:17.915Z,1.50
2018-08-25T18:49:47.075Z,1.73
2018-08-25T18:52:16.264Z,1.93
2018-08-25T18:54:45.383Z,1.60
2018-08-25T18:57:14.426Z,1.97
2018-08-25T18:59:43.508Z,1.83
2018-08-25T19:02:12.801Z,1.90
2018-08-25T19:04:41.676Z,2.10
2018-08-25T19:07:10.947Z,2.23
2018-08-25T19:09:40.418Z,2.00
2018-08-25T19:12:09.543Z,2.90
2018-08-25T19:14:38.864Z,2.40
2018-08-25T19:17:07.992Z,2.30
2018-08-25T19:19:37.070Z,2.43
2018-08-25T19:22:06.367Z,2.47
2018-08-25T19:24:35.544Z,2.70
2018-08-25T19:27:05.535Z,2.53
2018-08-25T19:29:34.636Z,2.20
2018-08-25T19:32:03.808Z,2.97
2018-08-25T19:34:32.929Z,2.90
2018-08-25T19:37:02.078Z,2.90
2018-08-25T19:39:31.227Z,3.20
2018-08-25T19:42:00.366Z,2.90
2018-08-25T19:44:29.546Z,2.80
2018-08-25T19:46:58.718Z,2.90
2018-08-25T19:49:29.181Z,2.70
2018-08-25T19:51:58.413Z,2.20
2018-08-25T19:54:27.509Z,2.00
2018-08-25T19:56:56.648Z,1.77
2018-08-25T19:59:25.834Z,1.90
2018-08-25T20:01:54.920Z,2.00
2018-08-25T20:04:24.011Z,2.17
2018-08-25T20:06:53.078Z,2.37
2018-08-25T20:09:22.205Z,2.57
2018-08-25T20:11:51.246Z,2.57
2018-08-25T20:14:20.415Z,2.20
2018-08-25T20:16:49.494Z,2.33
2018-08-25T20:19:18.542Z,1.80
2018-08-25T20:21:47.624Z,1.60
2018-08-25T20:24:16.678Z,1.80
2018-08-25T20:26:45.766Z,2.03
2018-08-25T20:29:14.838Z,2.00
2018-08-25T20:31:43.956Z,2.60
2018-08-25T20:34:13.010Z,2.87
2018-08-25T20:36:42.113Z,2.40
2018-08-25T20:39:11.223Z,2.17
2018-08-25T20:41:40.414Z,2.30
2018-08-25T20:44:09.519Z,2.57
2018-08-25T20:46:38.628Z,2.43
2018-08-25T20:49:07.687Z,2.33
2018-08-25T20:51:36.859Z,1.90
2018-08-25T20:54:05.933Z,2.00
2018-08-25T20:56:35.064Z,1.77
2018-08-25T20:59:04.299Z,2.30
2018-08-25T21:01:33.379Z,1.82
2018-08-25T21:04:02.651Z,2.20
2018-08-25T21:06:31.852Z,2.70
2018-08-25T21:09:01.304Z,2.10
2018-08-25T21:11:30.425Z,2.10
2018-08-25T21:13:59.576Z,2.23
2018-08-25T21:16:28.708Z,1.90
2018-08-25T21:18:57.813Z,2.33
2018-08-25T21:21:26.906Z,2.20
2018-08-25T21:23:56.050Z,2.27
2018-08-25T21:26:25.216Z,1.80
2018-08-25T21:28:54.583Z,2.03
2018-08-25T21:31:23.678Z,1.87
2018-08-25T21:33:52.801Z,2.17
2018-08-25T21:36:22.885Z,1.85
2018-08-25T21:38:51.978Z,1.90
2018-08-25T21:41:21.057Z,2.12
2018-08-25T21:43:50.150Z,2.30
2018-08-25T21:46:19.203Z,2.42
2018-08-25T21:48:48.289Z,2.00
2018-08-25T21:51:17.344Z,2.93
2018-08-25T21:53:46.474Z,2.47
2018-08-25T21:56:15.560Z,2.42
2018-08-25T21:58:44.640Z,2.53
2018-08-25T22:01:14.111Z,2.05
2018-08-25T22:03:43.107Z,2.27
2018-08-25T22:06:12.218Z,1.77
2018-08-25T22:08:41.358Z,1.70
2018-08-25T22:11:10.457Z,1.47
2018-08-25T22:13:39.520Z,1.80
2018-08-25T22:16:08.610Z,1.70
2018-08-25T22:18:37.724Z,1.70
2018-08-25T22:21:06.925Z,1.83
2018-08-25T22:23:36.062Z,2.00
2018-08-25T22:26:05.159Z,2.10
2018-08-25T22:28:34.910Z,1.83
2018-08-25T22:31:04.057Z,2.33
2018-08-25T22:33:33.115Z,2.57
2018-08-25T22:36:02.228Z,1.90
2018-08-25T22:38:32.443Z,1.97
2018-08-25T22:41:01.586Z,1.70
2018-08-25T22:43:30.685Z,2.03
2018-08-25T22:45:59.799Z,3.03
2018-08-25T22:48:28.894Z,2.07
2018-08-25T22:50:58.022Z,1.73
2018-08-25T22:53:27.075Z,2.03
2018-08-25T22:55:56.195Z,1.93
2018-08-25T22:58:25.253Z,2.23
2018-08-25T23:00:54.342Z,1.80
2018-08-25T23:03:23.378Z,1.90
2018-08-25T23:05:52.472Z,2.00
2018-08-25T23:08:21.537Z,1.87
2018-08-25T23:10:50.615Z,2.07
2018-08-25T23:13:19.741Z,2.07
2018-08-25T23:15:48.805Z,2.47
2018-08-25T23:18:17.866Z,2.20
2018-08-25T23:20:47.921Z,1.70
2018-08-25T23:23:16.989Z,2.50
2018-08-25T23:25:48.897Z,2.20
2018-08-25T23:28:17.971Z,2.00
2018-08-25T23:30:47.113Z,1.70
2018-08-25T23:33:16.214Z,2.30
2018-08-25T23:35:45.269Z,2.70
2018-08-25T23:38:14.358Z,2.00
2018-08-25T23:40:43.494Z,2.20
2018-08-25T23:43:12.658Z,2.30
2018-08-25T23:45:41.711Z,2.07
2018-08-25T23:48:10.874Z,2.17
2018-08-25T23:50:39.877Z,2.20
2018-08-25T23:53:08.968Z,2.07
2018-08-25T23:55:38.037Z,1.73
2018-08-25T23:58:07.359Z,2.10
